createdAt,value
2023-01-19T00:00:28.904Z,20.55
2023-01-19T00:02:56.364Z,14.35
2023-01-19T00:05:23.276Z,13.25
2023-01-19T00:07:50.155Z,13.43
2023-01-19T00:10:17.436Z,12.73
2023-01-19T00:12:44.299Z,12.75
2023-01-19T00:15:12.126Z,13.20
2023-01-19T00:17:41.010Z,12.70
2023-01-19T00:20:09.579Z,11.85
2023-01-19T00:22:36.588Z,15.00
2023-01-19T00:25:03.913Z,12.38
2023-01-19T00:27:35.113Z,13.23
2023-01-19T00:30:02.408Z,13.07
2023-01-19T00:32:29.360Z,14.55
2023-01-19T00:34:56.245Z,12.80
2023-01-19T00:37:23.121Z,12.50
2023-01-19T00:39:50.088Z,11.45
2023-01-19T00:42:35.568Z,9.82
2023-01-19T00:45:02.379Z,11.10
2023-01-19T00:47:29.212Z,8.63
2023-01-19T00:49:56.098Z,10.35
2023-01-19T00:52:22.950Z,10.00
2023-01-19T00:54:49.828Z,11.65
2023-01-19T00:57:17.168Z,12.25
2023-01-19T00:59:44.056Z,10.60
2023-01-19T01:02:11.722Z,13.50
2023-01-19T01:04:39.112Z,13.27
2023-01-19T01:07:06.004Z,14.45
2023-01-19T01:09:32.841Z,14.25
2023-01-19T01:11:59.653Z,15.60
2023-01-19T01:14:26.853Z,16.10
2023-01-19T01:16:53.871Z,17.27
2023-01-19T01:19:21.468Z,16.35
2023-01-19T01:21:48.329Z,16.45
2023-01-19T01:24:16.188Z,15.82
2023-01-19T01:26:43.073Z,15.30
2023-01-19T01:29:10.301Z,18.33
2023-01-19T01:31:37.299Z,18.92
2023-01-19T01:34:04.565Z,17.02
2023-01-19T01:36:33.440Z,17.65
2023-01-19T01:39:00.394Z,16.58
2023-01-19T01:41:27.541Z,19.05
2023-01-19T01:44:01.770Z,17.25
2023-01-19T01:46:31.191Z,17.10
2023-01-19T01:49:05.630Z,18.52
2023-01-19T01:51:46.889Z,19.02
2023-01-19T01:54:29.971Z,16.85
2023-01-19T01:57:01.954Z,17.60
2023-01-19T01:59:39.201Z,18.90
2023-01-19T02:02:29.938Z,18.20
2023-01-19T02:05:04.819Z,18.60
2023-01-19T02:08:07.243Z,18.45
2023-01-19T02:10:52.829Z,15.90
2023-01-19T02:13:20.770Z,17.20
2023-01-19T02:15:52.888Z,19.00
2023-01-19T02:18:22.750Z,19.33
2023-01-19T02:21:07.685Z,21.65
2023-01-19T02:23:37.279Z,19.00
2023-01-19T02:28:32.191Z,19.67
2023-01-19T02:30:59.265Z,19.02
2023-01-19T02:33:26.123Z,19.38
2023-01-19T02:35:55.691Z,20.25
2023-01-19T02:40:53.304Z,20.30
2023-01-19T02:43:20.763Z,18.75
2023-01-19T02:45:48.302Z,20.75
2023-01-19T02:48:17.983Z,20.48
2023-01-19T02:53:54.392Z,19.80
2023-01-19T02:56:48.924Z,21.38
2023-01-19T02:59:39.786Z,22.10
2023-01-19T03:02:26.313Z,22.02
2023-01-19T03:05:05.036Z,23.23
2023-01-19T03:08:10.559Z,23.50
2023-01-19T03:10:55.819Z,22.08
2023-01-19T03:13:41.353Z,21.15
2023-01-19T03:16:39.183Z,22.42
2023-01-19T03:19:27.615Z,26.10
2023-01-19T03:22:09.292Z,23.00
2023-01-19T03:24:40.232Z,21.42
2023-01-19T03:27:17.976Z,19.67
2023-01-19T03:29:52.264Z,23.67
2023-01-19T03:32:23.518Z,23.77
2023-01-19T03:34:53.099Z,21.88
2023-01-19T03:39:47.553Z,21.17
2023-01-19T03:42:16.604Z,23.67
2023-01-19T03:44:45.568Z,24.20
2023-01-19T03:47:14.353Z,23.77
2023-01-19T03:49:44.395Z,20.67
2023-01-19T03:52:12.830Z,22.33
2023-01-19T03:54:40.925Z,19.15
2023-01-19T03:57:08.125Z,21.45
2023-01-19T03:59:35.131Z,20.30
2023-01-19T04:02:02.281Z,19.40
2023-01-19T04:04:29.127Z,19.10
2023-01-19T04:06:56.040Z,20.15
2023-01-19T04:09:22.975Z,20.33
2023-01-19T04:11:49.745Z,19.88
2023-01-19T04:14:16.678Z,16.83
2023-01-19T04:16:43.534Z,17.73
2023-01-19T04:19:10.410Z,18.42
2023-01-19T04:21:37.279Z,16.10
2023-01-19T04:24:04.214Z,15.95
2023-01-19T04:26:31.036Z,17.88
2023-01-19T04:28:58.596Z,15.43
2023-01-19T04:31:25.494Z,17.83
2023-01-19T04:33:52.363Z,16.52
2023-01-19T04:36:19.207Z,13.75
2023-01-19T04:38:46.676Z,15.25
2023-01-19T04:41:13.558Z,14.00
2023-01-19T04:43:40.838Z,13.68
2023-01-19T04:46:07.744Z,13.50
2023-01-19T04:48:34.889Z,14.02
2023-01-19T04:51:01.788Z,13.73
2023-01-19T04:53:28.690Z,13.05
2023-01-19T04:55:55.593Z,14.45
2023-01-19T04:58:22.446Z,13.95
2023-01-19T05:00:51.169Z,16.02
2023-01-19T05:03:19.329Z,15.02
2023-01-19T05:05:46.687Z,13.90
2023-01-19T05:08:13.915Z,14.73
2023-01-19T05:10:40.766Z,16.35
2023-01-19T05:13:07.571Z,14.77
2023-01-19T05:15:34.449Z,12.82
2023-01-19T05:18:01.297Z,13.00
2023-01-19T05:20:28.153Z,14.80
2023-01-19T05:22:54.979Z,14.52
2023-01-19T05:25:21.843Z,12.90
2023-01-19T05:27:48.883Z,12.63
2023-01-19T05:30:16.649Z,15.27
2023-01-19T05:32:43.583Z,13.50
2023-01-19T05:35:10.543Z,15.85
2023-01-19T05:37:37.594Z,15.35
2023-01-19T05:40:05.018Z,14.27
2023-01-19T05:42:32.912Z,12.35
2023-01-19T05:45:00.074Z,16.98
2023-01-19T05:47:29.413Z,13.27
2023-01-19T05:49:56.370Z,13.98
2023-01-19T05:52:24.942Z,14.30
2023-01-19T05:54:52.069Z,12.00
2023-01-19T05:57:19.077Z,14.13
2023-01-19T05:59:45.895Z,16.75
2023-01-19T06:02:15.877Z,13.63
2023-01-19T06:04:42.769Z,12.00
2023-01-19T06:07:09.602Z,10.52
2023-01-19T06:09:36.695Z,12.10
2023-01-19T06:12:03.649Z,12.77
2023-01-19T06:14:30.691Z,13.27
2023-01-19T06:16:57.859Z,11.85
2023-01-19T06:19:24.916Z,11.43
2023-01-19T06:21:52.572Z,12.40
2023-01-19T06:24:19.770Z,10.70
2023-01-19T06:26:46.822Z,13.20
2023-01-19T06:29:14.542Z,13.27
2023-01-19T06:31:42.027Z,9.82
2023-01-19T06:34:09.403Z,9.25
2023-01-19T06:36:36.350Z,11.90
2023-01-19T06:39:05.834Z,13.48
2023-01-19T06:41:33.756Z,8.98
2023-01-19T06:44:00.727Z,8.60
2023-01-19T06:46:28.069Z,7.95
2023-01-19T06:48:55.298Z,7.38
2023-01-19T06:51:22.903Z,6.28
2023-01-19T06:53:50.069Z,7.10
2023-01-19T06:56:16.886Z,8.65
2023-01-19T06:58:44.160Z,5.93
2023-01-19T07:01:11.054Z,8.75
2023-01-19T07:03:38.616Z,5.95
2023-01-19T07:06:08.752Z,7.55
2023-01-19T07:08:36.899Z,9.55
2023-01-19T07:11:25.420Z,5.45
2023-01-19T07:13:55.528Z,8.20
2023-01-19T07:16:23.398Z,6.63
2023-01-19T07:18:50.896Z,5.15
2023-01-19T07:21:18.534Z,5.32
2023-01-19T07:23:49.553Z,8.63
2023-01-19T07:26:18.649Z,6.45
2023-01-19T07:28:46.813Z,7.68
2023-01-19T07:31:15.515Z,6.67
2023-01-19T07:33:42.426Z,5.75
2023-01-19T07:36:10.101Z,6.75
2023-01-19T07:38:36.970Z,6.32
2023-01-19T07:41:05.918Z,6.85
2023-01-19T07:43:33.973Z,6.60
2023-01-19T07:46:02.982Z,7.60
2023-01-19T07:48:30.283Z,3.08
2023-01-19T07:51:05.193Z,5.18
2023-01-19T07:53:32.864Z,9.70
2023-01-19T07:55:59.884Z,6.95
2023-01-19T07:58:26.950Z,9.73
2023-01-19T08:00:54.065Z,6.20
2023-01-19T08:03:21.071Z,7.63
2023-01-19T08:05:53.011Z,10.48
2023-01-19T08:08:20.399Z,8.70
2023-01-19T08:10:50.291Z,7.30
2023-01-19T08:13:17.319Z,7.70
2023-01-19T08:15:44.328Z,9.45
2023-01-19T08:18:11.639Z,9.85
2023-01-19T08:20:38.740Z,12.32
2023-01-19T08:23:05.653Z,7.05
2023-01-19T08:25:50.641Z,8.45
2023-01-19T08:28:18.103Z,7.50
2023-01-19T08:30:45.605Z,8.95
2023-01-19T08:33:13.809Z,9.93
2023-01-19T08:35:42.395Z,10.18
2023-01-19T08:38:10.626Z,9.95
2023-01-19T08:40:40.335Z,14.48
2023-01-19T08:43:13.363Z,9.32
2023-01-19T08:45:46.535Z,7.85
2023-01-19T08:48:13.852Z,10.93
2023-01-19T08:50:40.984Z,12.05
2023-01-19T08:53:08.065Z,8.85
2023-01-19T08:55:36.673Z,8.27
2023-01-19T08:58:04.733Z,12.00
2023-01-19T09:00:33.763Z,8.68
2023-01-19T09:03:05.143Z,12.43
2023-01-19T09:05:35.701Z,14.82
2023-01-19T09:08:06.342Z,7.43
2023-01-19T09:10:36.041Z,8.55
2023-01-19T09:13:05.045Z,10.55
2023-01-19T09:15:35.713Z,11.80
2023-01-19T09:18:04.599Z,10.85
2023-01-19T09:20:33.805Z,11.25
2023-01-19T09:23:00.919Z,12.77
2023-01-19T09:25:27.792Z,8.00
2023-01-19T09:27:56.118Z,10.30
2023-01-19T09:30:23.053Z,12.55
2023-01-19T09:32:49.944Z,9.40
2023-01-19T09:35:16.898Z,7.60
2023-01-19T09:37:47.605Z,7.57
2023-01-19T09:40:15.870Z,11.27
2023-01-19T09:42:44.730Z,9.10
2023-01-19T09:45:36.105Z,8.85
2023-01-19T09:48:19.118Z,7.43
2023-01-19T09:50:48.463Z,10.05
2023-01-19T09:53:45.372Z,8.85
2023-01-19T09:56:17.587Z,9.85
2023-01-19T09:58:45.196Z,14.02
2023-01-19T10:01:30.332Z,8.93
2023-01-19T10:04:18.401Z,15.02
2023-01-19T10:06:48.532Z,9.82
2023-01-19T10:09:24.226Z,13.30
2023-01-19T10:12:04.445Z,11.18
2023-01-19T10:14:41.695Z,7.70
2023-01-19T10:17:28.710Z,10.32
2023-01-19T10:19:59.281Z,11.32
2023-01-19T10:22:28.512Z,12.82
2023-01-19T10:24:59.180Z,7.82
2023-01-19T10:27:31.622Z,19.13
2023-01-19T10:30:00.544Z,14.60
2023-01-19T10:32:32.834Z,10.10
2023-01-19T10:35:01.022Z,9.82
2023-01-19T10:37:27.814Z,11.68
2023-01-19T10:40:11.215Z,10.60
2023-01-19T10:42:43.485Z,8.35
2023-01-19T10:45:24.695Z,8.02
2023-01-19T10:47:54.689Z,14.43
2023-01-19T10:50:39.951Z,7.72
2023-01-19T10:53:20.471Z,9.70
2023-01-19T10:55:47.554Z,6.82
2023-01-19T10:58:29.778Z,9.20
2023-01-19T11:01:16.093Z,8.32
2023-01-19T11:03:43.574Z,10.32
2023-01-19T11:06:21.496Z,11.13
2023-01-19T11:08:52.658Z,8.73
2023-01-19T11:11:21.735Z,9.40
2023-01-19T11:14:10.843Z,11.27
2023-01-19T11:16:40.023Z,8.50
2023-01-19T11:19:24.559Z,8.60
2023-01-19T11:21:51.568Z,10.80
2023-01-19T11:24:18.976Z,6.88
2023-01-19T11:26:57.653Z,12.07
2023-01-19T11:29:26.843Z,7.85
2023-01-19T11:31:55.444Z,7.85
2023-01-19T11:34:39.832Z,8.50
2023-01-19T11:37:31.722Z,10.40
2023-01-19T11:40:02.649Z,11.95
2023-01-19T11:42:33.706Z,8.30
2023-01-19T11:45:14.710Z,7.72
2023-01-19T11:47:45.491Z,7.47
2023-01-19T11:50:36.405Z,6.18
2023-01-19T11:53:11.801Z,8.35
2023-01-19T11:55:58.526Z,12.40
2023-01-19T11:58:26.777Z,8.02
2023-01-19T12:01:06.305Z,6.93
2023-01-19T12:03:44.184Z,8.00
2023-01-19T12:06:19.092Z,5.30
2023-01-19T12:08:54.062Z,5.45
2023-01-19T12:11:26.308Z,10.20
2023-01-19T12:13:53.988Z,4.28
2023-01-19T12:16:28.531Z,4.20
2023-01-19T12:19:10.883Z,6.18
2023-01-19T12:21:38.268Z,7.20
2023-01-19T12:24:23.426Z,4.55
2023-01-19T12:27:02.253Z,4.90
2023-01-19T12:29:33.247Z,8.27
2023-01-19T12:32:18.482Z,8.40
2023-01-19T12:34:51.802Z,5.25
2023-01-19T12:37:30.591Z,5.97
2023-01-19T12:40:18.807Z,5.43
2023-01-19T12:42:49.052Z,5.95
2023-01-19T12:45:25.592Z,6.25
2023-01-19T12:47:56.379Z,6.28
2023-01-19T12:50:25.917Z,5.28
2023-01-19T12:55:31.007Z,6.85
2023-01-19T12:58:22.089Z,6.43
2023-01-19T13:00:51.312Z,7.90
2023-01-19T13:03:18.198Z,4.82
2023-01-19T13:05:44.992Z,3.60
2023-01-19T13:08:12.696Z,5.38
2023-01-19T13:11:10.763Z,8.27
2023-01-19T13:13:43.858Z,5.03
2023-01-19T13:16:20.104Z,5.47
2023-01-19T13:19:13.381Z,4.95
2023-01-19T13:21:46.152Z,5.45
2023-01-19T13:24:17.157Z,5.32
2023-01-19T13:26:50.329Z,4.05
2023-01-19T13:29:36.117Z,4.90
2023-01-19T13:32:24.579Z,5.20
2023-01-19T13:35:01.762Z,4.93
2023-01-19T13:37:41.554Z,6.97
2023-01-19T13:40:30.354Z,5.67
2023-01-19T13:42:57.872Z,6.18
2023-01-19T13:45:30.079Z,6.43
2023-01-19T13:47:59.858Z,6.32
2023-01-19T13:50:30.357Z,4.38
2023-01-19T13:52:58.961Z,4.55
2023-01-19T13:55:30.561Z,9.47
2023-01-19T13:57:57.911Z,5.88
2023-01-19T14:00:30.887Z,6.72
2023-01-19T14:03:02.000Z,11.80
2023-01-19T14:05:37.912Z,3.00
2023-01-19T14:08:13.829Z,6.00
2023-01-19T14:11:02.259Z,5.55
2023-01-19T14:13:34.589Z,7.70
2023-01-19T14:16:12.205Z,5.95
2023-01-19T14:18:39.179Z,6.60
2023-01-19T14:21:11.380Z,4.70
2023-01-19T14:23:43.388Z,4.80
2023-01-19T14:26:46.171Z,6.22
2023-01-19T14:29:25.661Z,5.82
2023-01-19T14:32:19.348Z,6.95
2023-01-19T14:35:06.707Z,7.63
2023-01-19T14:37:37.898Z,8.10
2023-01-19T14:40:11.831Z,8.80
2023-01-19T14:42:47.826Z,5.22
2023-01-19T14:45:21.378Z,7.78
2023-01-19T14:47:57.535Z,6.03
2023-01-19T14:50:37.764Z,9.20
2023-01-19T14:53:16.895Z,8.23
2023-01-19T14:56:00.662Z,7.82
2023-01-19T14:58:31.209Z,9.32
2023-01-19T15:00:58.320Z,6.35
2023-01-19T15:03:42.923Z,8.80
2023-01-19T15:06:17.999Z,5.82
2023-01-19T15:08:45.618Z,7.93
2023-01-19T15:11:34.271Z,5.85
2023-01-19T15:14:02.325Z,8.50
2023-01-19T15:16:32.857Z,6.65
2023-01-19T15:19:00.419Z,7.63
2023-01-19T15:21:27.275Z,7.30
2023-01-19T15:23:55.023Z,6.38
2023-01-19T15:26:24.160Z,14.13
2023-01-19T15:28:51.574Z,6.72
2023-01-19T15:31:21.275Z,8.48
2023-01-19T15:33:48.363Z,11.88
2023-01-19T15:36:22.401Z,9.02
2023-01-19T15:38:51.999Z,8.73
2023-01-19T15:43:45.671Z,6.05
2023-01-19T15:46:15.592Z,6.75
2023-01-19T15:48:42.741Z,7.38
2023-01-19T15:51:14.151Z,9.13
2023-01-19T15:53:42.227Z,6.35
2023-01-19T15:56:35.587Z,5.35
2023-01-19T15:59:02.481Z,6.20
2023-01-19T16:01:33.950Z,5.63
2023-01-19T16:04:03.695Z,9.38
2023-01-19T16:09:01.571Z,5.70
2023-01-19T16:11:30.975Z,5.35
2023-01-19T16:13:59.325Z,6.05
2023-01-19T16:16:28.129Z,5.70
2023-01-19T16:18:56.645Z,6.28
2023-01-19T16:21:24.348Z,5.30
2023-01-19T16:23:51.566Z,6.15
2023-01-19T16:26:26.422Z,5.72
2023-01-19T16:28:56.462Z,5.43
2023-01-19T16:31:23.646Z,6.25
2023-01-19T16:33:50.593Z,4.65
2023-01-19T16:36:23.426Z,3.42
2023-01-19T16:38:50.691Z,12.20
2023-01-19T16:41:17.748Z,4.78
2023-01-19T16:43:44.809Z,3.85
2023-01-19T16:46:26.480Z,5.43
2023-01-19T16:48:58.301Z,6.53
2023-01-19T16:51:25.221Z,6.75
2023-01-19T16:53:52.115Z,4.25
2023-01-19T16:56:19.507Z,10.45
2023-01-19T16:58:46.343Z,11.48
2023-01-19T17:01:17.781Z,5.55
2023-01-19T17:03:46.487Z,4.68
2023-01-19T17:06:16.245Z,6.82
2023-01-19T17:08:43.112Z,8.48
2023-01-19T17:11:13.216Z,5.85
2023-01-19T17:13:40.104Z,9.07
2023-01-19T17:16:07.738Z,7.38
2023-01-19T17:18:35.875Z,7.40
2023-01-19T17:21:06.005Z,5.70
2023-01-19T17:23:33.980Z,5.88
2023-01-19T17:26:00.878Z,9.50
2023-01-19T17:28:27.869Z,9.63
2023-01-19T17:30:54.953Z,8.43
2023-01-19T17:33:24.091Z,7.38
2023-01-19T17:35:51.274Z,8.40
2023-01-19T17:38:18.173Z,5.93
2023-01-19T17:40:44.997Z,11.55
2023-01-19T17:43:12.028Z,11.25
2023-01-19T17:45:38.910Z,8.32
2023-01-19T17:48:06.025Z,5.72
2023-01-19T17:50:34.650Z,7.38
2023-01-19T17:53:01.759Z,7.43
2023-01-19T17:55:28.662Z,8.57
2023-01-19T17:57:55.704Z,10.13
2023-01-19T18:00:22.947Z,5.80
2023-01-19T18:02:51.522Z,6.88
2023-01-19T18:05:19.505Z,11.55
2023-01-19T18:07:47.062Z,6.93
2023-01-19T18:10:14.927Z,5.78
2023-01-19T18:12:42.134Z,9.18
2023-01-19T18:15:09.437Z,17.33
2023-01-19T18:17:36.277Z,12.32
2023-01-19T18:20:04.470Z,9.75
2023-01-19T18:22:32.364Z,12.68
2023-01-19T18:25:01.587Z,12.57
2023-01-19T18:27:29.283Z,12.32
2023-01-19T18:29:56.357Z,6.60
2023-01-19T18:32:23.264Z,12.25
2023-01-19T18:34:52.324Z,7.70
2023-01-19T18:37:19.150Z,8.57
2023-01-19T18:39:46.441Z,12.40
2023-01-19T18:42:13.545Z,9.18
2023-01-19T18:44:40.422Z,7.63
2023-01-19T18:47:07.365Z,7.85
2023-01-19T18:49:34.162Z,9.98
2023-01-19T18:52:01.084Z,6.85
2023-01-19T18:54:28.100Z,8.93
2023-01-19T18:56:54.985Z,11.23
2023-01-19T18:59:21.861Z,6.88
2023-01-19T19:01:48.862Z,5.95
2023-01-19T19:04:15.710Z,12.52
2023-01-19T19:06:42.599Z,7.60
2023-01-19T19:09:09.584Z,8.57
2023-01-19T19:11:36.715Z,14.05
2023-01-19T19:14:04.138Z,20.27
2023-01-19T19:16:32.774Z,20.27
2023-01-19T19:19:01.791Z,7.45
2023-01-19T19:21:28.681Z,8.25
2023-01-19T19:23:57.062Z,8.95
2023-01-19T19:26:25.320Z,6.88
2023-01-19T19:28:52.366Z,12.63
2023-01-19T19:31:21.245Z,9.48
2023-01-19T19:33:49.189Z,11.20
2023-01-19T19:36:16.245Z,12.07
2023-01-19T19:38:44.501Z,9.73
2023-01-19T19:41:17.605Z,12.82
2023-01-19T19:43:44.539Z,11.20
2023-01-19T19:46:14.237Z,9.77
2023-01-19T19:48:41.967Z,7.28
2023-01-19T19:51:18.974Z,5.97
2023-01-19T19:53:49.625Z,6.82
2023-01-19T19:56:21.114Z,7.28
2023-01-19T19:58:49.102Z,8.70
2023-01-19T20:01:19.243Z,4.45
2023-01-19T20:03:46.461Z,4.38
2023-01-19T20:06:22.993Z,8.35
2023-01-19T20:08:51.950Z,5.75
2023-01-19T20:11:21.420Z,6.85
2023-01-19T20:13:48.288Z,4.78
2023-01-19T20:16:18.823Z,5.63
2023-01-19T20:18:54.285Z,6.20
2023-01-19T20:21:32.777Z,8.05
2023-01-19T20:24:02.288Z,6.18
2023-01-19T20:26:33.819Z,7.32
2023-01-19T20:29:06.187Z,8.48
2023-01-19T20:31:35.767Z,5.70
2023-01-19T20:34:05.256Z,7.00
2023-01-19T20:36:32.182Z,6.95
2023-01-19T20:39:00.052Z,9.05
2023-01-19T20:41:27.476Z,8.10
2023-01-19T20:43:54.887Z,6.43
2023-01-19T20:46:21.902Z,8.18
2023-01-19T20:48:52.832Z,7.90
2023-01-19T20:51:20.508Z,6.93
2023-01-19T20:53:47.693Z,12.30
2023-01-19T20:56:15.665Z,8.57
2023-01-19T20:58:43.459Z,9.52
2023-01-19T21:01:22.401Z,8.68
2023-01-19T21:03:49.584Z,10.55
2023-01-19T21:06:16.907Z,9.80
2023-01-19T21:08:44.103Z,15.35
2023-01-19T21:11:11.722Z,7.00
2023-01-19T21:13:38.882Z,13.65
2023-01-19T21:16:06.453Z,16.50
2023-01-19T21:18:33.505Z,8.63
2023-01-19T21:21:00.686Z,7.82
2023-01-19T21:23:28.641Z,15.98
2023-01-19T21:25:58.116Z,21.45
2023-01-19T21:28:26.623Z,11.65
2023-01-19T21:30:54.581Z,16.23
2023-01-19T21:33:22.313Z,17.17
2023-01-19T21:35:54.400Z,10.35
2023-01-19T21:38:22.832Z,16.70
2023-01-19T21:40:50.373Z,13.30
2023-01-19T21:43:19.302Z,15.68
2023-01-19T21:45:47.106Z,15.85
2023-01-19T21:48:14.680Z,23.60
2023-01-19T21:50:41.594Z,19.05
2023-01-19T21:53:11.242Z,20.67
2023-01-19T21:55:42.904Z,23.42
2023-01-19T21:58:09.700Z,29.13
2023-01-19T22:00:36.578Z,23.02
2023-01-19T22:03:04.744Z,27.92
2023-01-19T22:05:36.830Z,24.40
2023-01-19T22:08:05.148Z,24.60
2023-01-19T22:10:32.192Z,17.73
2023-01-19T22:12:59.019Z,23.30
2023-01-19T22:15:25.826Z,25.35
2023-01-19T22:17:52.633Z,33.20
2023-01-19T22:20:19.519Z,21.77
2023-01-19T22:22:46.522Z,23.67
2023-01-19T22:25:14.955Z,23.88
2023-01-19T22:27:42.184Z,31.55
2023-01-19T22:30:09.636Z,25.73
2023-01-19T22:32:36.476Z,23.63
2023-01-19T22:35:03.438Z,20.90
2023-01-19T22:37:35.387Z,23.30
2023-01-19T22:40:03.539Z,21.77
2023-01-19T22:42:30.879Z,24.70
2023-01-19T22:44:57.707Z,22.20
2023-01-19T22:47:24.627Z,20.73
2023-01-19T22:49:51.444Z,21.20
2023-01-19T22:52:18.309Z,20.00
2023-01-19T22:54:45.210Z,22.30
2023-01-19T22:57:12.095Z,27.88
2023-01-19T22:59:38.971Z,22.95
2023-01-19T23:02:05.902Z,22.30
2023-01-19T23:04:32.922Z,21.38
2023-01-19T23:06:59.784Z,24.55
2023-01-19T23:09:26.621Z,24.17
2023-01-19T23:11:53.570Z,27.77
2023-01-19T23:14:22.412Z,26.77
2023-01-19T23:16:49.633Z,23.35
2023-01-19T23:19:17.341Z,28.02
2023-01-19T23:21:45.262Z,29.25
2023-01-19T23:24:12.311Z,25.40
2023-01-19T23:26:39.385Z,27.63
2023-01-19T23:29:13.018Z,27.33
2023-01-19T23:31:43.846Z,29.20
2023-01-19T23:34:12.295Z,30.80
2023-01-19T23:36:40.513Z,29.27
2023-01-19T23:39:13.887Z,27.48
2023-01-19T23:41:40.711Z,25.27
2023-01-19T23:44:07.774Z,31.33
2023-01-19T23:46:34.650Z,26.85
2023-01-19T23:49:01.590Z,24.95
2023-01-19T23:51:30.484Z,25.67
2023-01-19T23:53:58.871Z,25.63
2023-01-19T23:56:26.961Z,29.10
2023-01-19T23:59:03.308Z,21.50
